Time;durP1;ratioP1;P1;durP2;ratioP2;P2;SDS_P1;SDS_P2;PMS_P1;PMS_P2;Temp;Humidity;BMP_temperature;BMP_pressure;BME280_temperature;BME280_humidity;BME280_pressure;Samples;Min_cycle;Max_cycle;Signal;HPM_P1;HPM_P2
2023/01/28 00:02:56;;;;;;;26.08;15.73;;;;;;;-1.92;100.00;98971.56;4952759;28;20058;-63
2023/01/28 00:05:42;;;;;;;25.75;13.98;;;;;;;-1.98;100.00;98972.50;4945779;28;20056;-64
2023/01/28 00:08:26;;;;;;;25.98;14.30;;;;;;;-2.10;100.00;98977.78;4951751;28;20054;-62
2023/01/28 00:11:12;;;;;;;26.35;14.50;;;;;;;-2.11;100.00;98961.56;4953212;28;20047;-62
2023/01/28 00:13:57;;;;;;;28.80;15.70;;;;;;;-2.08;100.00;98968.34;4940660;29;20094;-63
2023/01/28 00:16:42;;;;;;;26.45;14.63;;;;;;;-1.76;100.00;98972.19;4949496;28;20094;-63
2023/01/28 00:19:26;;;;;;;28.60;15.10;;;;;;;-2.07;100.00;98977.75;4952737;28;20218;-64
2023/01/28 00:22:11;;;;;;;27.88;14.48;;;;;;;-2.01;100.00;98969.13;4941901;28;20051;-63
2023/01/28 00:24:56;;;;;;;25.13;14.00;;;;;;;-2.04;100.00;98971.72;4964681;28;20043;-64
2023/01/28 00:27:40;;;;;;;25.67;14.98;;;;;;;-2.05;100.00;98970.03;4951506;28;20386;-64
2023/01/28 00:30:25;;;;;;;26.08;15.30;;;;;;;-2.23;100.00;98971.97;4951936;28;20075;-64
2023/01/28 00:33:10;;;;;;;29.05;15.20;;;;;;;-2.13;100.00;98980.41;4964724;28;20035;-63
2023/01/28 00:36:02;;;;;;;25.92;14.18;;;;;;;-2.07;100.00;98988.00;4955726;28;20071;-64
2023/01/28 00:38:56;;;;;;;;;;;;;;;-1.88;100.00;98982.63;4956124;28;20078;-62
2023/01/28 00:41:41;;;;;;;23.58;13.80;;;;;;;-1.66;100.00;98984.88;4955197;28;19929;-65
2023/01/28 00:44:26;;;;;;;23.45;13.32;;;;;;;-1.52;100.00;98984.69;4973444;28;20121;-64
2023/01/28 00:47:10;;;;;;;24.38;13.90;;;;;;;-1.41;100.00;98987.09;4957600;28;20210;-63
2023/01/28 00:49:55;;;;;;;24.58;13.50;;;;;;;-1.67;100.00;98985.75;4966472;28;20047;-63
2023/01/28 00:52:40;;;;;;;23.98;13.43;;;;;;;-1.62;100.00;98982.25;4962329;28;20043;-64
2023/01/28 00:55:25;;;;;;;27.35;13.90;;;;;;;-1.55;100.00;98982.16;4940131;28;20092;-63
2023/01/28 00:58:10;;;;;;;24.67;13.57;;;;;;;-1.95;100.00;98984.44;4967703;28;20047;-64
2023/01/28 01:00:55;;;;;;;25.38;13.43;;;;;;;-1.87;100.00;98976.63;4946715;29;20225;-63
2023/01/28 01:03:40;;;;;;;24.25;14.23;;;;;;;-1.58;100.00;98979.66;4956049;28;20487;-63
2023/01/28 01:06:25;;;;;;;22.75;13.65;;;;;;;-1.69;100.00;98980.66;4954613;28;20047;-64
2023/01/28 01:09:11;;;;;;;23.92;13.52;;;;;;;-2.11;100.00;98981.22;4955190;29;20042;-65
2023/01/28 01:11:56;;;;;;;24.98;14.50;;;;;;;-1.91;100.00;98973.25;4941351;28;20443;-63
2023/01/28 01:14:40;;;;;;;24.55;14.05;;;;;;;-1.92;100.00;98975.84;4955532;28;20063;-64
2023/01/28 01:17:30;;;;;;;24.30;13.45;;;;;;;-1.71;100.00;98974.69;4953965;28;20106;-63
2023/01/28 01:20:22;;;;;;;23.02;13.50;;;;;;;-1.69;100.00;98983.22;4970965;28;20454;-64
2023/01/28 01:23:08;;;;;;;23.05;13.77;;;;;;;-2.05;100.00;98986.28;4956882;28;20090;-63
2023/01/28 01:25:54;;;;;;;23.33;13.30;;;;;;;-2.06;100.00;98986.31;4954221;28;20039;-63
2023/01/28 01:28:38;;;;;;;24.23;13.43;;;;;;;-1.76;100.00;98990.16;4946647;29;20043;-63
2023/01/28 01:31:23;;;;;;;23.15;13.45;;;;;;;-1.66;100.00;98985.75;4963308;28;20340;-64
2023/01/28 01:34:08;;;;;;;25.35;13.82;;;;;;;-1.98;100.00;98985.34;4955151;28;20054;-64
2023/01/28 01:36:53;;;;;;;25.58;13.80;;;;;;;-1.93;100.00;98981.84;4955213;28;20185;-61
2023/01/28 01:39:38;;;;;;;25.65;13.93;;;;;;;-1.79;100.00;98984.22;4953945;28;20047;-62
2023/01/28 01:42:24;;;;;;;21.40;13.35;;;;;;;-2.02;100.00;98975.97;4942174;28;20055;-63
2023/01/28 01:45:13;;;;;;;25.17;13.32;;;;;;;-2.07;100.00;98984.63;4959793;28;20054;-63
2023/01/28 01:48:04;;;;;;;23.67;13.52;;;;;;;-1.92;100.00;98980.97;4962633;28;20098;-62
2023/01/28 01:51:00;;;;;;;22.98;13.10;;;;;;;-1.83;100.00;98985.16;4955929;28;20122;-62
2023/01/28 01:53:49;;;;;;;26.10;14.02;;;;;;;-1.68;100.00;98982.34;4954272;28;20504;-64
2023/01/28 01:56:38;;;;;;;21.17;13.13;;;;;;;-1.64;100.00;98981.44;4953090;28;20047;-64
2023/01/28 01:59:32;;;;;;;26.25;14.50;;;;;;;-1.71;100.00;98981.56;4953982;28;20047;-64
2023/01/28 02:02:16;;;;;;;25.38;14.63;;;;;;;-1.94;100.00;98981.00;4960721;28;20050;-64
2023/01/28 02:05:02;;;;;;;23.92;12.98;;;;;;;-1.86;100.00;98975.78;4951056;28;20863;-62
2023/01/28 02:07:53;;;;;;;25.75;15.10;;;;;;;-1.95;100.00;98971.59;4953365;29;20426;-61
2023/01/28 02:10:38;;;;;;;25.33;13.68;;;;;;;-1.85;100.00;98972.31;4953237;28;20043;-62
2023/01/28 02:13:27;;;;;;;27.90;15.55;;;;;;;-1.83;100.00;98977.44;4953069;29;20062;-62
2023/01/28 02:16:13;;;;;;;27.15;14.85;;;;;;;-1.74;100.00;98977.28;4954554;29;20051;-63
2023/01/28 02:18:57;;;;;;;28.63;15.32;;;;;;;-1.95;100.00;98978.44;4944470;28;20135;-63
2023/01/28 02:22:05;;;;;;;26.02;14.55;;;;;;;-1.70;100.00;98983.25;4954466;29;20051;-63
2023/01/28 02:25:22;;;;;;;25.85;14.48;;;;;;;-1.71;100.00;98984.97;4951321;28;20067;-62
2023/01/28 02:28:21;;;;;;;30.30;16.05;;;;;;;-1.91;100.00;98982.69;4917835;29;20162;-63
2023/01/28 02:31:42;;;;;;;28.75;15.82;;;;;;;-1.87;100.00;98992.03;4932631;29;20130;-64
2023/01/28 02:34:27;;;;;;;29.45;16.25;;;;;;;-1.84;100.00;98986.84;4837170;29;20533;-64
2023/01/28 02:37:31;;;;;;;28.50;16.15;;;;;;;-1.68;100.00;98979.75;4838693;29;20061;-64
2023/01/28 02:40:26;;;;;;;31.15;16.42;;;;;;;-2.03;100.00;98983.69;4838828;29;20050;-63
2023/01/28 02:43:14;;;;;;;29.48;15.95;;;;;;;-2.10;100.00;98988.06;4839010;29;20058;-64
2023/01/28 02:49:17;;;;;;;28.35;15.50;;;;;;;-1.96;100.00;98971.63;4828551;29;20042;-62
2023/01/28 02:55:57;;;;;;;33.60;17.17;;;;;;;-1.79;100.00;98979.94;4838370;29;20050;-63
2023/01/28 02:58:45;;;;;;;31.90;16.15;;;;;;;-1.85;100.00;98977.47;4837535;29;20347;-62
2023/01/28 03:01:39;;;;;;;28.80;16.17;;;;;;;-1.83;100.00;98980.00;4838718;29;20046;-63
2023/01/28 03:04:48;;;;;;;31.45;17.08;;;;;;;-1.98;100.00;98981.91;4871520;29;20075;-64
2023/01/28 03:07:37;;;;;;;27.40;15.93;;;;;;;-2.08;100.00;98980.34;4853466;29;20070;-65
2023/01/28 03:10:25;;;;;;;30.27;16.75;;;;;;;-2.28;100.00;98976.31;4928981;28;20090;-62
2023/01/28 03:37:44;;;;;;;31.08;16.73;;;;;;;-2.70;100.00;99007.56;4939147;28;20052;-62
2023/01/28 03:40:51;;;;;;;30.83;16.30;;;;;;;-2.79;100.00;98998.28;4943273;28;20049;-63
2023/01/28 03:43:37;;;;;;;28.88;16.23;;;;;;;-2.81;100.00;98998.28;4933632;28;20055;-63
2023/01/28 03:46:22;;;;;;;31.23;16.15;;;;;;;-2.76;100.00;99003.38;4975433;28;20039;-62
2023/01/28 03:49:07;;;;;;;31.27;16.65;;;;;;;-2.53;100.00;99007.41;4955556;28;20067;-62
2023/01/28 03:51:51;;;;;;;30.00;16.05;;;;;;;-2.44;100.00;99009.00;4960861;28;20066;-62
2023/01/28 03:54:36;;;;;;;31.33;15.85;;;;;;;-2.58;100.00;99014.31;4958170;28;20047;-63
2023/01/28 03:57:24;;;;;;;31.02;17.08;;;;;;;-2.59;100.00;99005.75;4949591;28;20474;-64
2023/01/28 04:00:10;;;;;;;29.63;16.35;;;;;;;-2.62;100.00;99019.47;4951243;28;20050;-62
2023/01/28 04:02:59;;;;;;;30.50;16.42;;;;;;;-2.56;100.00;99004.88;4952926;28;20118;-62
2023/01/28 04:06:05;;;;;;;26.92;15.38;;;;;;;-2.75;100.00;99015.31;4954312;28;20088;-62
2023/01/28 04:09:08;;;;;;;30.23;16.50;;;;;;;-2.55;100.00;99009.13;4948279;28;20051;-63
2023/01/28 04:12:06;;;;;;;34.17;17.02;;;;;;;-2.48;100.00;99014.19;4956045;28;20047;-62
2023/01/28 04:14:57;;;;;;;29.67;17.20;;;;;;;-2.35;100.00;99014.88;4945989;29;20059;-63
2023/01/28 04:17:46;;;;;;;32.13;16.35;;;;;;;-2.37;100.00;99015.78;4956094;28;20047;-64
2023/01/28 04:20:37;;;;;;;33.45;16.85;;;;;;;-2.64;100.00;99018.63;4955338;29;20051;-63
2023/01/28 04:23:22;;;;;;;29.63;16.52;;;;;;;-2.43;100.00;99019.25;4946362;28;20043;-63
2023/01/28 04:26:07;;;;;;;31.42;16.55;;;;;;;-2.50;100.00;99017.63;4954663;28;20458;-63
2023/01/28 04:28:52;;;;;;;34.35;16.55;;;;;;;-2.27;100.00;99017.34;4955104;28;20054;-61
2023/01/28 04:31:37;;;;;;;28.80;16.63;;;;;;;-2.40;100.00;99020.94;4955393;28;20446;-62
2023/01/28 04:34:34;;;;;;;28.30;15.48;;;;;;;-2.57;100.00;99028.81;4954329;28;20567;-63
2023/01/28 04:37:43;;;;;;;28.25;15.63;;;;;;;-2.30;100.00;99019.97;4955332;28;20051;-64
2023/01/28 04:41:03;;;;;;;29.20;15.18;;;;;;;-2.36;100.00;99025.16;4945501;28;20382;-64
2023/01/28 04:43:51;;;;;;;31.25;16.92;;;;;;;-2.48;100.00;99039.00;4956102;28;20446;-63
2023/01/28 04:46:47;;;;;;;31.92;17.60;;;;;;;-2.38;100.00;99035.44;4918726;29;20108;-64
2023/01/28 04:49:47;;;;;;;30.73;16.83;;;;;;;-2.48;100.00;99039.00;4954443;28;20047;-63
2023/01/28 04:52:43;;;;;;;30.02;15.48;;;;;;;-2.61;100.00;99036.56;4942941;29;20487;-62
2023/01/28 04:55:41;;;;;;;30.35;15.82;;;;;;;-2.39;100.00;99028.63;4954598;28;20399;-63
2023/01/28 04:58:26;;;;;;;29.67;16.00;;;;;;;-2.33;100.00;99035.41;4968400;28;20110;-64
2023/01/28 05:01:15;;;;;;;28.95;16.27;;;;;;;-2.39;100.00;99027.78;4954957;28;20035;-64
2023/01/28 05:04:04;;;;;;;31.98;16.75;;;;;;;-2.40;100.00;99034.63;4956034;29;20051;-63
2023/01/28 05:06:49;;;;;;;28.60;15.73;;;;;;;-2.80;100.00;99037.59;4968383;28;20126;-65
2023/01/28 05:09:39;;;;;;;31.33;15.93;;;;;;;-2.53;100.00;99044.16;4946235;28;20124;-62
2023/01/28 05:12:24;;;;;;;29.52;16.13;;;;;;;-2.66;100.00;99048.56;4944566;28;20035;-63
2023/01/28 05:15:08;;;;;;;30.70;16.13;;;;;;;-2.58;100.00;99040.81;4954544;28;20070;-62
2023/01/28 05:17:55;;;;;;;28.85;15.45;;;;;;;-2.57;100.00;99044.22;4945122;28;20044;-62
2023/01/28 05:20:40;;;;;;;28.48;16.23;;;;;;;-2.68;100.00;99045.19;4947953;28;20067;-63
2023/01/28 05:23:25;;;;;;;32.20;16.27;;;;;;;-2.74;100.00;99042.66;4914990;28;20057;-62
2023/01/28 05:26:13;;;;;;;29.67;17.10;;;;;;;-2.57;100.00;99037.38;4967890;28;20043;-62
2023/01/28 05:28:58;;;;;;;28.40;16.45;;;;;;;-2.64;100.00;99046.00;4954116;28;20131;-62
2023/01/28 05:31:42;;;;;;;31.08;15.90;;;;;;;-2.67;100.00;99046.03;4928496;28;20047;-63
2023/01/28 05:34:27;;;;;;;31.25;16.70;;;;;;;-2.61;100.00;99044.25;4941614;28;20124;-63
2023/01/28 05:37:13;;;;;;;33.50;17.52;;;;;;;-2.66;100.00;99048.56;4967580;28;20039;-62
2023/01/28 05:39:58;;;;;;;32.38;16.38;;;;;;;-2.72;100.00;99049.50;4955137;28;20537;-65
2023/01/28 05:42:42;;;;;;;35.63;16.23;;;;;;;-2.72;100.00;99046.94;4942068;28;20126;-63
2023/01/28 05:45:41;;;;;;;32.70;16.52;;;;;;;-2.65;100.00;99047.72;4942049;28;20102;-62
2023/01/28 05:48:51;;;;;;;31.77;16.27;;;;;;;-2.69;100.00;99048.59;4944727;28;20039;-63
2023/01/28 05:52:02;;;;;;;30.65;16.33;;;;;;;-2.52;100.00;99047.59;4951703;28;20102;-62
2023/01/28 05:54:48;;;;;;;32.90;17.40;;;;;;;-2.58;100.00;99055.34;4936086;29;20055;-63
2023/01/28 05:57:33;;;;;;;29.25;12.68;;;;;;;-2.56;100.00;99062.16;4954427;29;20090;-62
2023/01/28 06:00:19;;;;;;;31.17;17.23;;;;;;;-2.63;100.00;99061.38;4948557;28;20118;-62
2023/01/28 06:03:05;;;;;;;31.88;17.33;;;;;;;-2.70;100.00;99049.47;4952810;28;20046;-64
2023/01/28 06:05:52;;;;;;;30.35;16.45;;;;;;;-2.48;100.00;99046.72;4942145;28;20537;-48
2023/01/28 06:08:37;;;;;;;28.92;16.00;;;;;;;-1.77;100.00;99052.72;4953399;29;20051;-65
2023/01/28 06:11:21;;;;;;;22.90;12.05;;;;;;;-1.58;100.00;99051.59;4944631;29;20044;-61
2023/01/28 06:14:08;;;;;;;30.60;15.93;;;;;;;-2.33;100.00;99058.50;4953823;28;20439;-62
2023/01/28 06:17:12;;;;;;;29.75;16.70;;;;;;;-2.09;100.00;99064.25;4952386;29;20479;-62
2023/01/28 06:20:19;;;;;;;31.55;15.88;;;;;;;-1.95;100.00;99056.34;4952883;28;20035;-64
2023/01/28 06:23:06;;;;;;;31.25;17.00;;;;;;;-2.28;100.00;99071.28;4953528;28;20096;-64
2023/01/28 06:25:55;;;;;;;31.67;17.25;;;;;;;-2.40;100.00;99074.84;4954414;28;20051;-63
2023/01/28 06:28:39;;;;;;;34.50;18.30;;;;;;;-2.19;100.00;99068.63;4953459;28;20483;-64
2023/01/28 06:31:24;;;;;;;35.63;18.35;;;;;;;-2.23;100.00;99066.94;4952579;28;20569;-65
2023/01/28 06:34:09;;;;;;;33.05;16.75;;;;;;;-2.57;100.00;99065.59;4957212;28;20169;-63
2023/01/28 06:36:54;;;;;;;35.17;16.83;;;;;;;-2.44;100.00;99075.72;4965115;28;20053;-66
2023/01/28 06:39:39;;;;;;;33.08;18.15;;;;;;;-2.57;100.00;99081.00;4964953;28;20075;-63
2023/01/28 06:42:23;;;;;;;33.53;18.23;;;;;;;-2.56;100.00;99090.38;4956843;28;20039;-63
2023/01/28 06:45:08;;;;;;;35.60;17.85;;;;;;;-2.42;100.00;99091.97;4964155;28;20540;-63
2023/01/28 06:47:53;;;;;;;34.80;17.83;;;;;;;-2.21;100.00;99087.47;4953847;28;20039;-63
2023/01/28 06:50:38;;;;;;;33.33;17.23;;;;;;;-2.39;100.00;99090.22;4953230;28;20181;-63
2023/01/28 06:53:22;;;;;;;32.75;17.90;;;;;;;-2.24;100.00;99096.91;4958047;28;20043;-62
2023/01/28 06:56:07;;;;;;;34.75;18.25;;;;;;;-2.26;100.00;99090.94;4939611;28;20032;-63
2023/01/28 06:58:52;;;;;;;38.55;19.02;;;;;;;-2.40;100.00;99096.22;4965385;28;20169;-62
2023/01/28 07:01:37;;;;;;;36.13;18.42;;;;;;;-2.04;100.00;99108.66;4952194;28;20102;-63
2023/01/28 07:04:21;;;;;;;34.45;17.42;;;;;;;-2.00;100.00;99109.50;4954109;28;20043;-61
2023/01/28 07:07:06;;;;;;;35.28;18.70;;;;;;;-2.05;100.00;99116.41;4953125;28;20057;-63
2023/01/28 07:09:51;;;;;;;34.50;18.55;;;;;;;-1.93;100.00;99108.56;4953554;28;20121;-63
2023/01/28 07:12:35;;;;;;;34.50;17.92;;;;;;;-2.24;100.00;99111.47;4955415;28;20050;-63
2023/01/28 07:15:20;;;;;;;33.00;17.25;;;;;;;-2.15;100.00;99110.50;4957506;28;20039;-63
2023/01/28 07:18:05;;;;;;;35.15;19.15;;;;;;;-2.22;100.00;99117.44;4956202;29;20047;-62
2023/01/28 07:20:49;;;;;;;34.08;17.85;;;;;;;-2.24;100.00;99117.44;4952082;28;20051;-66
2023/01/28 07:23:34;;;;;;;32.45;17.65;;;;;;;-1.95;100.00;99125.72;4953714;28;20082;-63
2023/01/28 07:26:19;;;;;;;33.28;18.00;;;;;;;-2.17;100.00;99132.81;4940134;29;20049;-63
2023/01/28 07:29:03;;;;;;;32.17;17.27;;;;;;;-1.81;100.00;99117.00;4954403;28;20387;-63
2023/01/28 07:31:48;;;;;;;33.70;17.23;;;;;;;-1.96;100.00;99118.03;4952735;28;20096;-63
2023/01/28 07:34:33;;;;;;;31.88;17.63;;;;;;;-2.12;100.00;99120.75;4946204;29;20126;-66
2023/01/28 07:37:18;;;;;;;31.52;16.98;;;;;;;-2.08;100.00;99125.00;4963193;28;20144;-61
2023/01/28 07:40:03;;;;;;;32.45;16.70;;;;;;;-1.72;100.00;99129.72;4939989;28;20047;-60
2023/01/28 07:42:48;;;;;;;33.85;17.83;;;;;;;-1.57;100.00;99135.53;4954877;28;20043;-61
2023/01/28 07:45:33;;;;;;;30.77;17.27;;;;;;;-1.52;100.00;99139.72;4964937;28;20094;-62
2023/01/28 07:48:18;;;;;;;31.25;16.25;;;;;;;-1.57;100.00;99144.09;4955332;29;20146;-60
2023/01/28 07:51:03;;;;;;;84.65;57.28;;;;;;;-1.22;100.00;99152.19;4956670;28;20062;-62
2023/01/28 07:53:47;;;;;;;41.20;25.30;;;;;;;-0.85;100.00;99155.97;4957117;29;20051;-61
2023/01/28 07:56:34;;;;;;;33.88;17.73;;;;;;;-1.30;100.00;99151.47;4955797;28;20495;-61
2023/01/28 07:59:19;;;;;;;38.00;24.42;;;;;;;-1.43;100.00;99154.19;4956204;28;20475;-62
2023/01/28 08:02:03;;;;;;;47.92;27.70;;;;;;;-1.44;100.00;99159.38;4935973;29;20055;-66
2023/01/28 08:04:49;;;;;;;40.20;23.23;;;;;;;-1.17;100.00;99165.00;4953466;28;20646;-63
2023/01/28 08:07:34;;;;;;;37.63;21.00;;;;;;;-0.73;100.00;99170.34;4952899;28;20490;-53
2023/01/28 08:10:18;;;;;;;49.97;29.60;;;;;;;-0.43;100.00;99168.19;4955628;28;20070;-63
2023/01/28 08:13:04;;;;;;;41.10;21.20;;;;;;;-0.49;100.00;99170.84;4953305;28;20065;-64
2023/01/28 08:15:55;;;;;;;39.22;23.00;;;;;;;-0.45;100.00;99171.63;4949171;28;20043;-65
2023/01/28 08:18:39;;;;;;;45.88;26.92;;;;;;;-0.66;100.00;99179.69;4958011;28;20051;-64
2023/01/28 08:21:24;;;;;;;45.78;26.42;;;;;;;-0.70;100.00;99175.44;4958355;28;20046;-65
2023/01/28 08:24:09;;;;;;;43.00;22.33;;;;;;;-0.69;100.00;99172.03;4961980;28;20447;-62
2023/01/28 08:26:54;;;;;;;30.75;16.48;;;;;;;-0.91;100.00;99167.19;4955401;28;20053;-61
2023/01/28 08:29:39;;;;;;;29.70;16.48;;;;;;;-1.10;100.00;99168.34;4961248;28;20410;-64
2023/01/28 08:32:23;;;;;;;34.17;20.58;;;;;;;-0.84;100.00;99167.09;4951791;28;20058;-64
2023/01/28 08:35:08;;;;;;;40.65;23.45;;;;;;;-0.51;100.00;99168.28;4940125;28;20407;-65
2023/01/28 08:37:53;;;;;;;27.27;14.55;;;;;;;-0.81;100.00;99177.34;4940666;28;20467;-51
2023/01/28 08:40:38;;;;;;;30.40;16.95;;;;;;;-0.38;100.00;99174.06;4965421;28;20129;-64
2023/01/28 08:43:23;;;;;;;29.23;15.38;;;;;;;-0.55;100.00;99173.50;4945556;28;20098;-63
2023/01/28 08:46:07;;;;;;;28.35;14.68;;;;;;;-1.02;100.00;99179.38;4947383;28;20054;-65
2023/01/28 08:48:52;;;;;;;28.70;16.27;;;;;;;-0.69;100.00;99171.16;4956687;28;20054;-70
2023/01/28 08:51:37;;;;;;;25.25;13.00;;;;;;;-1.12;100.00;99166.66;4952358;28;20050;-66
2023/01/28 08:54:22;;;;;;;28.52;14.30;;;;;;;-1.12;100.00;99165.78;4963035;28;20138;-64
2023/01/28 08:57:06;;;;;;;25.38;13.45;;;;;;;-1.41;100.00;99165.31;4952940;28;20414;-66
2023/01/28 08:59:52;;;;;;;34.15;16.30;;;;;;;-1.23;100.00;99176.22;4954111;28;20121;-68
2023/01/28 09:02:37;;;;;;;28.10;14.80;;;;;;;-0.31;100.00;99174.81;4952316;28;20047;-65
2023/01/28 09:05:24;;;;;;;31.77;17.08;;;;;;;-0.37;100.00;99187.81;4949716;28;20046;-66
2023/01/28 09:08:13;;;;;;;22.02;13.00;;;;;;;-0.75;100.00;99196.13;4949909;29;20062;-65
2023/01/28 09:10:58;;;;;;;24.45;13.63;;;;;;;-0.50;100.00;99189.72;4952820;29;20501;-61
2023/01/28 09:13:43;;;;;;;20.55;12.55;;;;;;;-0.56;100.00;99195.84;4942595;28;20059;-63
2023/01/28 09:16:28;;;;;;;29.20;14.35;;;;;;;-0.55;100.00;99194.09;4954246;28;20126;-62
2023/01/28 09:19:12;;;;;;;23.52;12.75;;;;;;;-0.39;100.00;99197.28;4946756;28;20039;-62
2023/01/28 09:21:57;;;;;;;25.77;13.75;;;;;;;-0.38;100.00;99196.41;4964297;28;20079;-62
2023/01/28 09:24:42;;;;;;;29.75;15.98;;;;;;;2.97;100.00;99191.28;4954468;29;20055;-61
2023/01/28 09:27:27;;;;;;;25.17;13.48;;;;;;;0.96;100.00;99193.00;4967009;28;20089;-62
2023/01/28 09:30:12;;;;;;;23.75;12.10;;;;;;;-0.08;100.00;99193.34;4960917;28;20039;-65
2023/01/28 09:32:57;;;;;;;21.70;12.20;;;;;;;-0.47;100.00;99205.13;4950408;28;20045;-63
2023/01/28 09:35:42;;;;;;;25.85;12.57;;;;;;;-0.62;100.00;99204.50;4964042;28;20042;-63
2023/01/28 09:38:28;;;;;;;20.50;11.68;;;;;;;-0.62;100.00;99198.53;4950970;29;20098;-62
2023/01/28 09:41:37;;;;;;;23.02;12.50;;;;;;;-0.28;100.00;99200.50;4956974;28;20070;-61
2023/01/28 09:44:22;;;;;;;23.50;13.27;;;;;;;0.21;100.00;99205.66;4958063;28;20039;-57
2023/01/28 09:47:40;;;;;;;23.08;12.68;;;;;;;0.13;100.00;99206.69;4953173;28;20422;-60
2023/01/28 09:50:37;;;;;;;26.80;14.27;;;;;;;0.85;100.00;99200.97;4944190;29;20047;-61
2023/01/28 09:53:38;;;;;;;23.88;12.50;;;;;;;-0.05;96.69;99211.31;4944975;28;20051;-61
2023/01/28 09:56:33;;;;;;;21.20;12.43;;;;;;;-0.29;100.00;99208.28;4963656;28;20093;-60
2023/01/28 09:59:21;;;;;;;23.30;12.07;;;;;;;-0.20;100.00;99204.69;4954286;28;20042;-60
2023/01/28 10:02:42;;;;;;;24.63;13.10;;;;;;;-0.56;100.00;99205.28;4954920;28;20090;-60
2023/01/28 10:06:06;;;;;;;24.08;12.88;;;;;;;-0.84;100.00;99206.56;4953490;28;20043;-61
2023/01/28 10:09:15;;;;;;;22.52;12.77;;;;;;;-0.30;100.00;99206.59;4946141;28;20466;-61
2023/01/28 10:12:20;;;;;;;21.38;11.77;;;;;;;-0.96;100.00;99199.84;4947020;28;20065;-63
2023/01/28 10:15:05;;;;;;;26.27;14.18;;;;;;;-0.92;100.00;99196.38;4947569;29;20051;-61
2023/01/28 10:17:53;;;;;;;23.60;12.05;;;;;;;-0.87;100.00;99193.75;4946588;29;20146;-63
2023/01/28 10:20:53;;;;;;;22.50;11.93;;;;;;;-0.50;100.00;99205.19;4953954;28;20450;-60
2023/01/28 10:23:58;;;;;;;25.42;12.65;;;;;;;-0.27;100.00;99206.53;4953444;29;20051;-61
2023/01/28 10:26:44;;;;;;;21.27;11.38;;;;;;;-0.29;100.00;99205.69;4952787;28;20051;-61
2023/01/28 10:29:33;;;;;;;21.15;11.73;;;;;;;-0.11;100.00;99214.84;4952987;28;20078;-62
2023/01/28 10:32:29;;;;;;;21.60;12.05;;;;;;;-0.43;100.00;99204.22;4943203;28;20039;-60
2023/01/28 10:35:13;;;;;;;23.15;12.48;;;;;;;0.11;100.00;99192.09;4952707;28;20109;-60
2023/01/28 10:38:06;;;;;;;22.73;11.75;;;;;;;-0.49;100.00;99201.75;4953283;28;20122;-61
2023/01/28 10:40:50;;;;;;;22.17;12.77;;;;;;;-0.69;99.46;99199.47;4947429;28;20051;-60
2023/01/28 10:43:39;;;;;;;24.55;12.73;;;;;;;-0.98;100.00;99195.63;4953302;29;20482;-60
2023/01/28 10:46:33;;;;;;;22.40;11.85;;;;;;;-0.56;100.00;99205.28;4953541;28;20054;-61
2023/01/28 10:49:24;;;;;;;22.77;12.65;;;;;;;-0.67;100.00;99201.13;4943132;28;20050;-60
2023/01/28 10:52:15;;;;;;;20.80;11.27;;;;;;;-0.95;100.00;99203.28;4953029;28;20506;-61
2023/01/28 10:55:01;;;;;;;21.77;12.25;;;;;;;-0.77;100.00;99197.84;4953380;29;20066;-60
2023/01/28 10:57:47;;;;;;;22.42;12.70;;;;;;;-0.67;100.00;99206.28;4953386;28;20403;-61
2023/01/28 11:00:36;;;;;;;23.92;13.73;;;;;;;-0.64;100.00;99205.41;4955247;28;20047;-61
2023/01/28 11:03:26;;;;;;;23.50;13.18;;;;;;;-0.09;100.00;99209.66;4947756;28;20048;-61
2023/01/28 11:06:24;;;;;;;22.10;11.93;;;;;;;0.33;100.00;99198.56;4946767;28;20035;-65
2023/01/28 11:09:21;;;;;;;27.15;14.73;;;;;;;0.07;100.00;99212.81;4935304;29;20138;-61
2023/01/28 11:12:11;;;;;;;28.30;13.95;;;;;;;-0.47;100.00;99202.56;4950190;29;20704;-62
2023/01/28 11:15:04;;;;;;;29.42;14.77;;;;;;;-0.41;100.00;99204.19;4950219;28;20059;-64
2023/01/28 11:18:06;;;;;;;25.20;13.60;;;;;;;-0.29;100.00;99206.56;4946402;28;20051;-64
2023/01/28 11:21:16;;;;;;;28.92;15.30;;;;;;;-1.05;100.00;99207.72;4951271;28;20055;-61
2023/01/28 11:24:04;;;;;;;27.15;14.55;;;;;;;-1.15;100.00;99201.84;4948754;28;20047;-66
2023/01/28 11:26:52;;;;;;;26.85;14.75;;;;;;;-1.36;100.00;99198.69;4944367;29;20063;-61
2023/01/28 11:29:39;;;;;;;29.25;16.17;;;;;;;-1.56;100.00;99204.91;4942007;28;20050;-62
2023/01/28 11:32:25;;;;;;;29.15;16.27;;;;;;;-1.71;100.00;99203.38;4943817;28;20090;-62
2023/01/28 11:35:24;;;;;;;31.40;17.65;;;;;;;-1.71;100.00;99200.78;4954144;28;20086;-63
2023/01/28 11:38:20;;;;;;;34.55;18.08;;;;;;;-1.71;100.00;99205.94;4946365;28;20157;-63
2023/01/28 11:41:14;;;;;;;32.55;17.52;;;;;;;-1.73;100.00;99198.25;4953583;29;20059;-70
2023/01/28 11:44:13;;;;;;;29.90;16.40;;;;;;;-1.75;100.00;99204.28;4948240;28;20106;-62
2023/01/28 11:47:18;;;;;;;33.65;16.60;;;;;;;-1.69;100.00;99199.06;4949512;29;20122;-64
2023/01/28 11:50:24;;;;;;;31.02;17.23;;;;;;;-1.74;100.00;99195.69;4956435;29;20479;-64
2023/01/28 11:53:25;;;;;;;27.95;15.38;;;;;;;-1.21;100.00;99195.06;4951329;29;20471;-59
2023/01/28 11:56:36;;;;;;;26.42;14.48;;;;;;;-1.34;100.00;99198.66;4949396;29;20193;-61
2023/01/28 11:59:58;;;;;;;29.23;16.67;;;;;;;-0.54;100.00;99209.53;4959904;28;20142;-58
2023/01/28 12:02:50;;;;;;;26.23;15.00;;;;;;;-0.23;100.00;99212.47;4950284;29;20279;-58
2023/01/28 12:05:51;;;;;;;25.27;14.15;;;;;;;-1.05;100.00;99210.28;4949093;29;20047;-56
2023/01/28 12:08:41;;;;;;;26.03;14.43;;;;;;;-1.19;100.00;99208.72;4946551;29;20074;-56
2023/01/28 12:14:39;;;;;;;27.40;13.65;;;;;;;-0.92;100.00;99213.53;4951841;29;20431;-55
2023/01/28 12:18:01;;;;;;;23.00;13.00;;;;;;;-0.89;100.00;99210.91;4952191;29;20094;-59
2023/01/28 12:20:53;;;;;;;25.83;13.68;;;;;;;-1.20;100.00;99206.19;4952586;29;20051;-58
2023/01/28 12:23:38;;;;;;;;;;;;;;;-0.55;100.00;99212.97;4953135;29;20050;-59
2023/01/28 12:26:27;;;;;;;23.67;13.15;;;;;;;3.27;100.00;99205.03;4951879;29;20298;-59
2023/01/28 12:29:48;;;;;;;26.20;13.20;;;;;;;1.16;100.00;99204.63;4952634;28;20039;-63
2023/01/28 12:32:54;;;;;;;23.65;11.77;;;;;;;-0.16;100.00;99209.78;4939204;29;20047;-63
2023/01/28 12:36:05;;;;;;;21.20;11.60;;;;;;;0.38;100.00;99213.97;4961747;28;20048;-63
2023/01/28 12:39:05;;;;;;;22.88;12.27;;;;;;;0.40;100.00;99202.75;4940381;29;20527;-61
2023/01/28 12:42:01;;;;;;;21.30;12.15;;;;;;;-0.19;100.00;99214.97;4960704;28;20061;-62
2023/01/28 12:44:59;;;;;;;20.50;11.73;;;;;;;-0.54;100.00;99211.25;4955848;29;20082;-62
2023/01/28 12:47:54;;;;;;;20.50;11.50;;;;;;;-0.47;100.00;99214.59;4949157;29;20047;-61
2023/01/28 12:51:03;;;;;;;21.98;11.68;;;;;;;-0.72;100.00;99213.25;4947571;28;20098;-63
2023/01/28 12:53:55;;;;;;;21.88;11.35;;;;;;;-0.51;100.00;99213.78;4940575;29;20130;-60
2023/01/28 12:56:44;;;;;;;22.15;11.55;;;;;;;-0.89;100.00;99216.91;4943641;28;20141;-61
2023/01/28 12:59:48;;;;;;;20.48;11.68;;;;;;;-0.57;100.00;99219.03;4939863;28;20040;-61
2023/01/28 13:02:39;;;;;;;19.48;11.20;;;;;;;-0.65;100.00;99217.41;4947647;29;20035;-61
2023/01/28 13:05:33;;;;;;;19.88;10.30;;;;;;;-0.56;100.00;99224.16;4952570;29;20134;-63
2023/01/28 13:08:27;;;;;;;19.50;11.02;;;;;;;-0.22;100.00;99227.91;4946730;29;20138;-65
2023/01/28 13:11:16;;;;;;;20.17;10.40;;;;;;;-0.15;100.00;99219.19;4944032;29;20102;-61
2023/01/28 13:14:02;;;;;;;20.67;11.88;;;;;;;-0.32;100.00;99227.22;4941097;29;20491;-60
2023/01/28 13:16:47;;;;;;;19.48;11.00;;;;;;;-0.22;100.00;99225.34;4954919;29;20508;-64
2023/01/28 13:19:41;;;;;;;21.67;12.05;;;;;;;-0.15;100.00;99223.50;4954393;29;20105;-67
2023/01/28 13:22:36;;;;;;;19.23;11.10;;;;;;;-0.04;100.00;99228.47;4942299;29;20554;-61
2023/01/28 13:25:24;;;;;;;17.98;10.38;;;;;;;-0.15;100.00;99229.50;4954209;29;20043;-62
2023/01/28 13:28:32;;;;;;;21.00;11.55;;;;;;;-0.17;100.00;99231.25;4954900;29;20544;-60
2023/01/28 13:31:20;;;;;;;18.30;10.45;;;;;;;-0.31;100.00;99217.78;4955046;29;20084;-61